createdAt,value
2017-04-15T00:02:03.297Z,10.4
2017-04-15T00:07:03.344Z,10.4
2017-04-15T00:12:03.344Z,10.4
2017-04-15T00:17:02.789Z,10.4
2017-04-15T00:22:03.315Z,10.4
2017-04-15T00:27:02.995Z,10.4
2017-04-15T00:32:03.439Z,10.4
2017-04-15T00:37:03.066Z,10.4
2017-04-15T00:42:03.531Z,10.3
2017-04-15T00:47:06.521Z,10.2
2017-04-15T00:52:02.910Z,10.2
2017-04-15T00:57:03.534Z,10.2
2017-04-15T01:02:03.105Z,10.2
2017-04-15T01:07:02.756Z,10.2
2017-04-15T01:12:03.331Z,10.2
2017-04-15T01:17:03.178Z,10.2
2017-04-15T01:22:03.602Z,10.3
2017-04-15T01:27:02.962Z,10.3
2017-04-15T01:32:03.441Z,10.4
2017-04-15T01:37:03.067Z,10.3
2017-04-15T01:42:02.828Z,10.4
2017-04-15T01:47:03.211Z,10.4
2017-04-15T01:52:02.628Z,10.4
2017-04-15T01:57:03.305Z,10.4
2017-04-15T02:02:03.599Z,10.4
2017-04-15T02:07:03.302Z,10.4
2017-04-15T02:12:03.124Z,10.4
2017-04-15T02:17:03.704Z,10.4
2017-04-15T02:22:02.764Z,10.4
2017-04-15T02:27:03.441Z,10.4
2017-04-15T02:32:03.084Z,10.4
2017-04-15T02:37:03.359Z,10.4
2017-04-15T02:42:02.663Z,10.4
2017-04-15T02:47:02.962Z,10.4
2017-04-15T02:52:03.457Z,10.5
2017-04-15T02:57:03.487Z,10.4
2017-04-15T03:02:02.850Z,10.4
2017-04-15T03:07:03.253Z,10.3
2017-04-15T03:12:02.891Z,10.3
2017-04-15T03:17:03.440Z,10.1
2017-04-15T03:22:03.503Z,10.1
2017-04-15T03:27:02.917Z,10.1
2017-04-15T03:32:03.217Z,10.0
2017-04-15T03:37:03.009Z,10.0
2017-04-15T03:42:03.206Z,9.9
2017-04-15T03:47:03.518Z,9.9
2017-04-15T03:52:03.034Z,9.9
2017-04-15T03:57:02.702Z,9.8
2017-04-15T04:02:04.419Z,9.8
2017-04-15T04:07:03.473Z,9.8
2017-04-15T04:12:03.423Z,9.7
2017-04-15T04:17:17.608Z,9.7
2017-04-15T04:22:02.786Z,9.6
2017-04-15T04:27:02.945Z,9.5
2017-04-15T04:32:16.913Z,9.5
2017-04-15T04:37:03.481Z,9.5
2017-04-15T04:42:03.341Z,9.4
2017-04-15T04:47:17.217Z,9.3
2017-04-15T04:52:03.108Z,9.3
2017-04-15T04:57:02.749Z,9.4
2017-04-15T05:02:17.830Z,9.4
2017-04-15T05:07:02.894Z,9.4
2017-04-15T05:12:03.055Z,9.5
2017-04-15T05:17:17.621Z,9.5
2017-04-15T05:22:03.545Z,9.6
2017-04-15T05:27:03.036Z,9.9
2017-04-15T05:32:17.784Z,9.9
2017-04-15T05:37:03.173Z,10.1
2017-04-15T05:42:03.512Z,10.2
2017-04-15T05:47:13.270Z,10.5
2017-04-15T05:52:02.782Z,10.5
2017-04-15T05:57:03.113Z,10.7
2017-04-15T06:02:13.093Z,11.0
2017-04-15T06:07:03.111Z,11.0
2017-04-15T06:12:02.954Z,11.1
2017-04-15T06:17:14.051Z,11.2
2017-04-15T06:22:03.625Z,11.4
2017-04-15T06:27:03.176Z,11.4
2017-04-15T06:32:13.074Z,11.6
2017-04-15T06:37:03.492Z,11.8
2017-04-15T06:42:02.927Z,12.2
2017-04-15T06:47:17.200Z,12.8
2017-04-15T06:52:02.733Z,13.1
2017-04-15T06:57:03.066Z,13.0
2017-04-15T07:02:17.191Z,13.5
2017-04-15T07:07:03.024Z,13.4
2017-04-15T07:12:03.371Z,14.2
2017-04-15T07:17:13.298Z,14.7
2017-04-15T07:22:03.334Z,14.7
2017-04-15T07:27:03.575Z,15.4
2017-04-15T07:32:13.286Z,15.3
2017-04-15T07:37:03.587Z,15.5
2017-04-15T07:42:03.414Z,15.9
2017-04-15T07:47:13.633Z,15.8
2017-04-15T07:52:02.975Z,15.8
2017-04-15T07:57:03.429Z,15.8
2017-04-15T08:02:13.018Z,15.7
2017-04-15T08:07:03.462Z,15.6
2017-04-15T08:12:02.969Z,15.6
2017-04-15T08:17:13.503Z,15.5
2017-04-15T08:22:03.521Z,15.5
2017-04-15T08:27:03.274Z,15.6
2017-04-15T08:32:13.558Z,15.6
2017-04-15T08:37:02.681Z,15.7
2017-04-15T08:42:03.529Z,15.7
2017-04-15T08:47:17.496Z,15.6
2017-04-15T08:52:03.221Z,15.5
2017-04-15T08:57:02.792Z,15.7
2017-04-15T09:02:16.931Z,15.8
2017-04-15T09:07:02.924Z,15.7
2017-04-15T09:12:03.491Z,15.9
2017-04-15T09:17:17.054Z,16.1
2017-04-15T09:22:02.844Z,16.2
2017-04-15T09:27:03.743Z,16.2
2017-04-15T09:32:16.766Z,16.2
2017-04-15T09:37:02.919Z,15.8
2017-04-15T09:42:03.356Z,15.8
2017-04-15T09:47:13.504Z,15.6
2017-04-15T09:52:03.217Z,15.8
2017-04-15T09:57:03.585Z,15.7
2017-04-15T10:02:16.999Z,16.1
2017-04-15T10:07:03.333Z,16.1
2017-04-15T10:12:03.629Z,16.2
2017-04-15T10:17:13.347Z,16.2
2017-04-15T10:22:03.308Z,16.2
2017-04-15T10:27:02.887Z,16.1
2017-04-15T10:32:13.025Z,16.0
2017-04-15T10:37:03.568Z,16.0
2017-04-15T10:42:02.683Z,16.2
2017-04-15T10:47:13.969Z,16.2
2017-04-15T10:52:02.677Z,16.3
2017-04-15T10:57:03.184Z,16.3
2017-04-15T11:02:12.864Z,16.4
2017-04-15T11:07:03.517Z,16.1
2017-04-15T11:12:03.346Z,16.2
2017-04-15T11:17:13.921Z,16.3
2017-04-15T11:22:03.041Z,16.6
2017-04-15T11:27:03.548Z,17.0
2017-04-15T11:32:17.332Z,16.9
2017-04-15T11:37:03.391Z,16.8
2017-04-15T11:42:03.235Z,16.3
2017-04-15T11:47:14.096Z,16.4
2017-04-15T11:52:03.570Z,16.8
2017-04-15T11:57:03.191Z,16.7
2017-04-15T12:02:13.814Z,16.5
2017-04-15T12:07:03.052Z,16.5
2017-04-15T12:12:03.378Z,16.6
2017-04-15T12:17:16.342Z,17.1
2017-04-15T12:22:02.896Z,17.5
2017-04-15T12:27:03.615Z,17.9
2017-04-15T12:32:17.185Z,17.7
2017-04-15T12:37:03.088Z,17.3
2017-04-15T12:42:03.518Z,17.1
2017-04-15T12:47:12.796Z,0.0
2017-04-15T12:52:03.456Z,17.1
2017-04-15T12:57:03.536Z,17.5
2017-04-15T13:02:07.844Z,18.0
2017-04-15T13:07:02.951Z,18.0
2017-04-15T13:12:03.344Z,18.0
2017-04-15T13:17:05.467Z,17.6
2017-04-15T13:22:03.551Z,17.5
2017-04-15T13:27:02.796Z,17.7
2017-04-15T13:32:13.635Z,17.6
2017-04-15T13:37:02.728Z,17.6
2017-04-15T13:42:03.115Z,18.0
2017-04-15T13:47:16.971Z,17.8
2017-04-15T13:52:03.190Z,17.8
2017-04-15T13:57:03.240Z,17.5
2017-04-15T14:02:12.981Z,17.0
2017-04-15T14:07:03.400Z,17.0
2017-04-15T14:12:03.621Z,17.1
2017-04-15T14:17:13.498Z,16.8
2017-04-15T14:22:03.527Z,16.4
2017-04-15T14:27:03.007Z,16.3
2017-04-15T14:32:13.439Z,16.1
2017-04-15T14:37:03.541Z,15.6
2017-04-15T14:42:03.084Z,15.4
2017-04-15T14:47:13.986Z,15.3
2017-04-15T14:52:02.881Z,15.3
2017-04-15T14:57:03.071Z,15.3
2017-04-15T15:02:13.530Z,15.5
2017-04-15T15:07:03.558Z,15.4
2017-04-15T15:12:02.931Z,15.7
2017-04-15T15:17:17.239Z,17.2
2017-04-15T15:22:03.528Z,17.2
2017-04-15T15:27:02.811Z,16.7
2017-04-15T15:32:13.504Z,15.1
2017-04-15T15:37:03.114Z,15.1
2017-04-15T15:42:03.155Z,14.6
2017-04-15T15:47:07.922Z,14.3
2017-04-15T15:52:03.497Z,13.9
2017-04-15T15:57:02.701Z,13.6
2017-04-15T16:02:17.130Z,13.4
2017-04-15T16:07:03.538Z,13.4
2017-04-15T16:12:03.068Z,13.2
2017-04-15T16:17:09.322Z,13.1
2017-04-15T16:22:03.224Z,13.0
2017-04-15T16:27:03.391Z,13.2
2017-04-15T16:32:12.906Z,13.2
2017-04-15T16:37:03.317Z,13.1
2017-04-15T16:42:03.298Z,13.0
2017-04-15T16:47:13.852Z,12.9
2017-04-15T16:52:03.375Z,13.3
2017-04-15T16:57:03.463Z,14.6
2017-04-15T17:02:13.246Z,13.2
2017-04-15T17:07:03.090Z,12.8
2017-04-15T17:12:03.343Z,12.8
2017-04-15T17:17:13.911Z,12.6
2017-04-15T17:22:02.837Z,12.5
2017-04-15T17:27:02.874Z,12.4
2017-04-15T17:32:17.599Z,12.3
2017-04-15T17:37:03.022Z,12.4
2017-04-15T17:42:03.020Z,12.4
2017-04-15T17:47:13.761Z,12.2
2017-04-15T17:52:02.871Z,12.2
2017-04-15T17:57:03.247Z,12.2
2017-04-15T18:02:13.388Z,12.1
2017-04-15T18:07:02.957Z,12.0
2017-04-15T18:12:03.114Z,11.8
2017-04-15T18:17:22.271Z,11.7
2017-04-15T18:22:02.808Z,11.6
2017-04-15T18:27:03.131Z,11.6
2017-04-15T18:32:13.735Z,11.6
2017-04-15T18:37:03.554Z,11.6
2017-04-15T18:42:03.307Z,11.6
2017-04-15T18:47:03.337Z,11.5
2017-04-15T18:52:03.501Z,11.5
2017-04-15T18:57:03.216Z,11.5
2017-04-15T19:02:03.978Z,11.5
2017-04-15T19:07:03.210Z,11.4
2017-04-15T19:12:03.675Z,11.4
2017-04-15T19:17:03.752Z,11.5
2017-04-15T19:22:03.162Z,11.5
2017-04-15T19:27:02.838Z,11.5
2017-04-15T19:32:03.222Z,11.5
2017-04-15T19:37:03.083Z,11.4
2017-04-15T19:42:03.148Z,11.4
2017-04-15T19:47:03.003Z,11.4
2017-04-15T19:52:03.028Z,11.1
2017-04-15T19:57:03.595Z,11.1
2017-04-15T20:02:03.242Z,10.7
2017-04-15T20:07:03.431Z,10.5
2017-04-15T20:12:03.164Z,10.5
2017-04-15T20:17:07.718Z,10.5
2017-04-15T20:22:03.158Z,10.4
2017-04-15T20:27:02.857Z,10.4
2017-04-15T20:32:04.584Z,10.3
2017-04-15T20:37:02.855Z,10.3
2017-04-15T20:42:02.932Z,10.2
2017-04-15T20:47:03.061Z,10.1
2017-04-15T20:52:02.594Z,10.1
2017-04-15T20:57:02.917Z,10.0
2017-04-15T21:02:03.380Z,9.9
2017-04-15T21:07:03.260Z,9.9
2017-04-15T21:12:02.733Z,9.9
2017-04-15T21:17:10.835Z,9.7
2017-04-15T21:22:07.011Z,9.7
2017-04-15T21:27:05.396Z,9.7
2017-04-15T21:32:10.054Z,9.7
2017-04-15T21:37:04.596Z,9.6
2017-04-15T21:42:04.603Z,9.7
2017-04-15T21:47:05.911Z,9.8
2017-04-15T21:52:05.009Z,9.8
2017-04-15T21:57:04.529Z,9.8
2017-04-15T22:02:13.879Z,9.7
2017-04-15T22:07:04.608Z,9.7
2017-04-15T22:12:04.965Z,9.6
2017-04-15T22:22:05.374Z,9.8
2017-04-15T22:27:10.369Z,9.7
2017-04-15T22:32:09.965Z,9.9
2017-04-15T22:37:05.765Z,9.9
2017-04-15T22:42:05.937Z,9.9
2017-04-15T22:47:11.981Z,9.9
2017-04-15T22:52:05.964Z,9.9
2017-04-15T22:57:05.051Z,9.9
2017-04-15T23:02:10.230Z,9.8
2017-04-15T23:07:04.753Z,9.8
2017-04-15T23:12:04.204Z,10.0
2017-04-15T23:17:11.895Z,10.0
2017-04-15T23:22:04.666Z,9.9
2017-04-15T23:27:04.982Z,10.0
2017-04-15T23:32:06.406Z,9.9
2017-04-15T23:37:05.150Z,9.9
2017-04-15T23:42:04.907Z,9.9
2017-04-15T23:47:11.821Z,9.9
2017-04-15T23:52:04.069Z,9.7
2017-04-15T23:57:04.699Z,9.7
